createdAt,value
2019-06-20T00:00:09.853Z,99571.38
2019-06-20T00:02:39.042Z,99570.21
2019-06-20T00:05:08.842Z,99568.82
2019-06-20T00:07:37.951Z,99572.23
2019-06-20T00:10:07.147Z,99576.94
2019-06-20T00:12:36.253Z,99574.50
2019-06-20T00:15:05.435Z,99580.98
2019-06-20T00:17:34.549Z,99594.25
2019-06-20T00:20:03.671Z,99600.25
2019-06-20T00:22:32.813Z,99597.85
2019-06-20T00:25:02.977Z,99596.20
2019-06-20T00:27:32.191Z,99603.06
2019-06-20T00:30:01.335Z,99613.48
2019-06-20T00:32:30.450Z,99625.85
2019-06-20T00:34:59.746Z,99612.06
2019-06-20T00:37:28.909Z,99606.39
2019-06-20T00:39:58.145Z,99612.78
2019-06-20T00:42:27.317Z,99613.80
2019-06-20T00:44:56.426Z,99611.41
2019-06-20T00:47:25.517Z,99611.30
2019-06-20T00:49:54.605Z,99613.67
2019-06-20T00:52:23.703Z,99606.66
2019-06-20T00:54:52.807Z,99594.20
2019-06-20T00:57:28.815Z,99590.74
2019-06-20T00:59:57.990Z,99590.94
2019-06-20T01:02:27.061Z,99588.42
2019-06-20T01:04:56.146Z,99588.51
2019-06-20T01:07:25.377Z,99590.00
2019-06-20T01:09:54.488Z,99591.14
2019-06-20T01:12:23.575Z,99590.35
2019-06-20T01:14:52.673Z,99596.58
2019-06-20T01:17:21.879Z,99589.30
2019-06-20T01:19:50.985Z,99588.11
2019-06-20T01:22:20.087Z,99594.97
2019-06-20T01:24:49.194Z,99594.30
2019-06-20T01:27:18.304Z,99603.11
2019-06-20T01:29:47.400Z,99605.95
2019-06-20T01:32:16.499Z,99611.70
2019-06-20T01:34:45.637Z,99608.07
2019-06-20T01:37:14.784Z,99606.66
2019-06-20T01:39:43.876Z,99617.61
2019-06-20T01:42:12.957Z,99613.27
2019-06-20T01:44:42.066Z,99620.13
2019-06-20T01:47:11.160Z,99622.02
2019-06-20T01:49:40.266Z,99617.60
2019-06-20T01:52:09.380Z,99618.94
2019-06-20T01:54:38.472Z,99615.71
2019-06-20T01:57:07.608Z,99620.98
2019-06-20T01:59:36.688Z,99617.84
2019-06-20T02:02:05.942Z,99615.71
2019-06-20T02:04:35.024Z,99612.64
2019-06-20T02:07:04.244Z,99513.31
2019-06-20T02:09:36.181Z,99608.78
2019-06-20T02:12:05.387Z,99614.53
2019-06-20T02:14:34.488Z,99621.77
2019-06-20T02:17:03.618Z,99617.83
2019-06-20T02:19:34.367Z,99608.06
2019-06-20T02:22:03.446Z,99611.61
2019-06-20T02:24:32.572Z,99603.66
2019-06-20T02:27:01.782Z,99607.59
2019-06-20T02:29:30.887Z,99611.30
2019-06-20T02:31:59.965Z,99604.71
2019-06-20T02:34:29.124Z,99602.34
2019-06-20T02:36:58.189Z,99597.30
2019-06-20T02:39:27.300Z,99600.67
2019-06-20T02:41:56.378Z,99592.52
2019-06-20T02:44:30.445Z,99599.73
2019-06-20T02:46:56.294Z,99608.86
2019-06-20T02:49:25.495Z,99612.55
2019-06-20T02:51:55.039Z,99604.13
2019-06-20T02:54:24.146Z,99611.53
2019-06-20T02:56:53.250Z,99615.47
2019-06-20T02:59:22.342Z,99619.16
2019-06-20T03:01:51.486Z,99617.58
2019-06-20T03:04:20.574Z,99625.13
2019-06-20T03:06:49.809Z,99630.27
2019-06-20T03:09:18.891Z,99567.27
2019-06-20T03:11:48.006Z,99641.36
2019-06-20T03:14:17.111Z,99642.63
2019-06-20T03:16:46.238Z,99644.91
2019-06-20T03:19:15.340Z,99650.33
2019-06-20T03:21:44.441Z,99647.80
2019-06-20T03:24:13.548Z,99656.30
2019-06-20T03:26:42.644Z,99651.02
2019-06-20T03:29:11.738Z,99661.14
2019-06-20T03:31:40.830Z,99659.09
2019-06-20T03:34:09.938Z,99659.16
2019-06-20T03:36:39.021Z,99661.44
2019-06-20T03:39:08.205Z,99652.94
2019-06-20T03:41:37.312Z,99659.95
2019-06-20T03:44:06.413Z,99659.95
2019-06-20T03:46:35.527Z,99660.75
2019-06-20T03:49:04.657Z,99660.83
2019-06-20T03:51:33.857Z,99665.52
2019-06-20T03:54:02.989Z,99674.59
2019-06-20T03:56:32.217Z,99678.34
2019-06-20T03:59:01.301Z,99686.33
2019-06-20T04:01:30.397Z,99679.63
2019-06-20T04:03:59.502Z,99685.59
2019-06-20T04:06:28.605Z,99683.31
2019-06-20T04:08:57.699Z,99686.86
2019-06-20T04:11:26.797Z,99687.58
2019-06-20T04:13:55.881Z,99686.47
2019-06-20T04:16:25.075Z,99693.48
2019-06-20T04:18:54.212Z,99692.01
2019-06-20T04:21:23.365Z,99696.59
2019-06-20T04:23:52.464Z,99693.38
2019-06-20T04:26:21.589Z,99688.26
2019-06-20T04:28:50.725Z,99694.88
2019-06-20T04:31:19.823Z,99698.41
2019-06-20T04:33:48.961Z,99701.95
2019-06-20T04:36:18.081Z,99694.19
2019-06-20T04:38:47.190Z,99697.98
2019-06-20T04:41:16.394Z,99686.13
2019-06-20T04:43:45.535Z,99690.46
2019-06-20T04:46:21.263Z,99691.11
2019-06-20T04:48:50.376Z,99693.09
2019-06-20T04:51:19.492Z,99702.64
2019-06-20T04:53:48.576Z,99704.44
2019-06-20T04:56:17.695Z,99702.26
2019-06-20T04:58:46.797Z,99709.41
2019-06-20T05:01:15.899Z,99711.78
2019-06-20T05:03:45.099Z,99716.05
2019-06-20T05:06:14.144Z,99720.63
2019-06-20T05:08:43.357Z,99722.73
2019-06-20T05:11:12.468Z,99724.64
2019-06-20T05:13:41.582Z,99722.41
2019-06-20T05:16:10.671Z,99723.98
2019-06-20T05:18:39.785Z,99729.74
2019-06-20T05:21:08.907Z,99729.34
2019-06-20T05:23:38.094Z,99729.03
2019-06-20T05:26:07.305Z,99732.52
2019-06-20T05:28:36.406Z,99730.31
2019-06-20T05:31:05.558Z,99727.06
2019-06-20T05:33:34.687Z,99732.58
2019-06-20T05:36:03.782Z,99731.78
2019-06-20T05:38:32.888Z,99734.86
2019-06-20T05:41:02.016Z,99737.94
2019-06-20T05:43:31.120Z,99734.16
2019-06-20T05:46:09.527Z,99736.63
2019-06-20T05:48:31.192Z,99745.62
2019-06-20T05:51:00.446Z,99743.65
2019-06-20T05:53:29.588Z,99745.22
2019-06-20T05:55:58.698Z,99752.79
2019-06-20T05:58:27.878Z,99750.58
2019-06-20T06:00:57.075Z,99560.75
2019-06-20T06:03:26.508Z,99753.85
2019-06-20T06:05:55.620Z,99757.80
2019-06-20T06:08:24.748Z,99754.92
2019-06-20T06:10:53.872Z,99758.13
2019-06-20T06:13:23.040Z,99752.45
2019-06-20T06:15:52.311Z,99759.08
2019-06-20T06:18:22.015Z,99756.08
2019-06-20T06:20:51.193Z,99750.37
2019-06-20T06:23:20.309Z,99753.84
2019-06-20T06:25:49.463Z,99749.73
2019-06-20T06:28:18.573Z,99751.08
2019-06-20T06:30:47.704Z,99754.16
2019-06-20T06:33:16.873Z,99749.34
2019-06-20T06:35:46.010Z,99755.81
2019-06-20T06:38:22.082Z,99754.94
2019-06-20T06:40:46.151Z,99754.77
2019-06-20T06:43:15.248Z,99763.97
2019-06-20T06:45:44.371Z,99761.68
2019-06-20T06:48:13.476Z,99763.64
2019-06-20T06:50:42.730Z,99769.55
2019-06-20T06:53:11.839Z,99765.88
2019-06-20T06:55:41.002Z,99771.86
2019-06-20T06:58:10.125Z,99766.27
2019-06-20T07:00:45.426Z,99770.60
2019-06-20T07:03:14.557Z,99782.14
2019-06-20T07:05:43.793Z,99785.24
2019-06-20T07:08:12.913Z,99781.78
2019-06-20T07:10:42.051Z,99780.63
2019-06-20T07:13:11.185Z,99785.42
2019-06-20T07:15:40.309Z,99785.64
2019-06-20T07:18:09.444Z,99782.66
2019-06-20T07:20:38.569Z,99785.00
2019-06-20T07:23:07.717Z,99791.98
2019-06-20T07:25:36.835Z,99793.05
2019-06-20T07:28:06.032Z,99797.03
2019-06-20T07:30:35.195Z,99801.09
2019-06-20T07:33:04.336Z,99803.28
2019-06-20T07:35:33.477Z,99801.58
2019-06-20T07:38:02.655Z,99804.98
2019-06-20T07:40:31.781Z,99811.78
2019-06-20T07:43:00.908Z,99811.03
2019-06-20T07:45:30.019Z,99814.86
2019-06-20T07:47:59.168Z,99821.01
2019-06-20T07:50:28.290Z,99811.70
2019-06-20T07:53:02.577Z,99817.73
2019-06-20T07:55:28.507Z,99821.17
2019-06-20T07:57:57.693Z,99818.30
2019-06-20T08:00:27.615Z,99818.46
2019-06-20T08:02:56.745Z,99829.11
2019-06-20T08:05:25.902Z,99825.73
2019-06-20T08:07:55.013Z,99821.47
2019-06-20T08:10:25.103Z,99827.55
2019-06-20T08:12:54.313Z,99820.70
2019-06-20T08:15:24.837Z,99828.11
2019-06-20T08:17:54.077Z,99829.75
2019-06-20T08:20:24.959Z,99820.34
2019-06-20T08:22:54.085Z,99821.84
2019-06-20T08:25:23.257Z,99820.67
2019-06-20T08:27:52.865Z,99636.91
2019-06-20T08:30:29.878Z,99819.80
2019-06-20T08:33:00.150Z,99825.61
2019-06-20T08:35:31.408Z,99821.39
2019-06-20T08:38:01.863Z,99824.55
2019-06-20T08:40:36.121Z,99826.47
2019-06-20T08:43:06.254Z,99826.37
2019-06-20T08:45:37.846Z,99830.27
2019-06-20T08:48:07.447Z,99823.80
2019-06-20T08:50:36.941Z,99824.67
2019-06-20T08:53:06.543Z,99821.02
2019-06-20T08:55:35.871Z,99828.86
2019-06-20T08:58:05.616Z,99824.92
2019-06-20T09:00:36.864Z,99835.66
2019-06-20T09:03:07.072Z,99836.42
2019-06-20T09:05:36.418Z,99844.89
2019-06-20T09:08:06.268Z,99839.98
2019-06-20T09:10:39.561Z,99836.70
2019-06-20T09:13:10.061Z,99832.71
2019-06-20T09:15:39.581Z,99832.90
2019-06-20T09:18:08.916Z,99833.27
2019-06-20T09:20:38.317Z,99832.05
2019-06-20T09:23:07.427Z,99827.70
2019-06-20T09:25:37.113Z,99826.81
2019-06-20T09:28:06.976Z,99830.80
2019-06-20T09:30:37.606Z,99822.03
2019-06-20T09:33:06.940Z,99824.64
2019-06-20T09:35:36.228Z,99832.42
2019-06-20T09:38:05.474Z,99828.65
2019-06-20T09:40:34.705Z,99831.60
2019-06-20T09:43:04.057Z,99841.03
2019-06-20T09:45:34.571Z,99850.72
2019-06-20T09:48:03.720Z,99847.77
2019-06-20T09:50:32.964Z,99856.30
2019-06-20T09:53:02.084Z,99855.94
2019-06-20T09:55:31.265Z,99855.41
2019-06-20T09:58:00.402Z,99860.80
2019-06-20T10:00:30.028Z,99862.30
2019-06-20T10:02:59.202Z,99867.88
2019-06-20T10:05:28.502Z,99866.34
2019-06-20T10:07:57.661Z,99852.59
2019-06-20T10:10:30.178Z,99852.38
2019-06-20T10:12:59.748Z,99854.22
2019-06-20T10:15:30.538Z,99851.45
2019-06-20T10:18:00.112Z,99850.55
2019-06-20T10:20:29.556Z,99854.15
2019-06-20T10:22:58.718Z,99847.23
2019-06-20T10:25:27.840Z,99855.92
2019-06-20T10:27:57.942Z,99854.19
2019-06-20T10:30:28.592Z,99854.56
2019-06-20T10:32:57.965Z,99859.01
2019-06-20T10:35:27.150Z,99860.75
2019-06-20T10:37:57.229Z,99864.95
2019-06-20T10:40:27.827Z,99868.03
2019-06-20T10:42:57.151Z,99862.47
2019-06-20T10:45:27.048Z,99861.01
2019-06-20T10:47:56.260Z,99863.63
2019-06-20T10:50:25.537Z,99859.48
2019-06-20T10:52:57.661Z,99865.11
2019-06-20T10:55:26.900Z,99865.65
2019-06-20T10:57:56.054Z,99878.02
2019-06-20T11:00:31.320Z,99866.22
2019-06-20T11:02:57.227Z,99866.22
2019-06-20T11:05:26.480Z,99881.66
2019-06-20T11:07:55.617Z,99888.95
2019-06-20T11:10:25.073Z,99889.13
2019-06-20T11:12:56.201Z,99890.48
2019-06-20T11:15:25.381Z,99895.34
2019-06-20T11:17:56.598Z,99891.13
2019-06-20T11:20:26.912Z,99900.52
2019-06-20T11:22:56.067Z,99902.37
2019-06-20T11:25:25.224Z,99904.20
2019-06-20T11:27:54.371Z,99902.05
2019-06-20T11:30:24.196Z,99897.19
2019-06-20T11:32:53.364Z,99895.70
2019-06-20T11:35:22.509Z,99897.06
2019-06-20T11:37:52.755Z,99894.42
2019-06-20T11:40:22.271Z,99885.55
2019-06-20T11:42:51.452Z,99890.45
2019-06-20T11:45:21.394Z,99892.90
2019-06-20T11:48:40.620Z,99887.34
2019-06-20T11:51:10.208Z,99887.34
2019-06-20T11:53:40.596Z,99891.97
2019-06-20T11:56:09.695Z,99884.89
2019-06-20T11:58:38.912Z,99884.89
2019-06-20T12:01:08.031Z,99881.15
2019-06-20T12:03:39.041Z,99881.06
2019-06-20T12:06:08.034Z,99874.66
2019-06-20T12:08:39.110Z,99884.39
2019-06-20T12:11:07.999Z,99889.70
2019-06-20T12:13:38.737Z,99881.33
2019-06-20T12:16:07.945Z,99879.33
2019-06-20T12:18:39.750Z,99881.31
2019-06-20T12:21:07.917Z,99868.41
2019-06-20T12:23:38.084Z,99864.31
2019-06-20T12:26:08.353Z,99870.60
2019-06-20T12:28:38.973Z,99863.20
2019-06-20T12:31:18.893Z,99866.66
2019-06-20T12:33:40.571Z,99872.07
2019-06-20T12:36:10.111Z,99877.38
2019-06-20T12:38:39.901Z,99883.03
2019-06-20T12:41:10.122Z,99883.38
2019-06-20T12:43:40.324Z,99880.30
2019-06-20T12:46:09.473Z,99883.76
2019-06-20T12:48:39.904Z,99868.99
2019-06-20T12:51:09.500Z,99870.09
2019-06-20T12:53:39.299Z,99866.56
2019-06-20T12:56:09.456Z,99859.25
2019-06-20T12:58:39.453Z,99852.48
2019-06-20T13:01:09.627Z,99852.23
2019-06-20T13:03:40.336Z,99858.18
2019-06-20T13:06:09.682Z,99856.42
2019-06-20T13:08:40.371Z,99859.30
2019-06-20T13:11:09.678Z,99850.14
2019-06-20T13:13:40.223Z,99847.55
2019-06-20T13:16:09.626Z,99843.59
2019-06-20T13:18:39.612Z,99842.81
2019-06-20T13:21:09.584Z,99835.66
2019-06-20T13:23:40.199Z,99836.14
2019-06-20T13:26:09.550Z,99839.31
2019-06-20T13:28:54.179Z,99835.34
2019-06-20T13:31:09.532Z,99830.03
2019-06-20T13:33:39.581Z,99837.30
2019-06-20T13:36:09.752Z,99839.38
2019-06-20T13:38:39.896Z,99838.62
2019-06-20T13:41:09.734Z,99838.25
2019-06-20T13:43:38.829Z,99835.34
2019-06-20T13:46:07.914Z,99839.63
2019-06-20T13:48:37.028Z,99837.59
2019-06-20T13:51:06.164Z,99846.08
2019-06-20T13:53:35.298Z,99846.81
2019-06-20T13:56:04.441Z,99846.05
2019-06-20T13:58:33.565Z,99848.84
2019-06-20T14:01:02.649Z,99755.42
2019-06-20T14:03:31.796Z,99845.80
2019-06-20T14:06:00.899Z,99841.13
2019-06-20T14:08:30.005Z,99835.63
2019-06-20T14:10:59.159Z,99836.16
2019-06-20T14:13:28.266Z,99847.20
2019-06-20T14:15:57.554Z,99812.47
2019-06-20T14:18:26.699Z,99837.62
2019-06-20T14:20:55.833Z,99840.50
2019-06-20T14:23:24.964Z,99834.75
2019-06-20T14:25:54.086Z,99838.42
2019-06-20T14:28:23.222Z,99839.42
2019-06-20T14:30:52.726Z,99838.59
2019-06-20T14:33:21.851Z,99839.19
2019-06-20T14:35:51.234Z,99834.30
2019-06-20T14:38:20.488Z,99841.10
2019-06-20T14:40:49.951Z,99835.11
2019-06-20T14:43:19.143Z,99832.61
2019-06-20T14:45:48.692Z,99831.45
2019-06-20T14:48:17.932Z,99829.23
2019-06-20T14:50:47.830Z,99831.95
2019-06-20T14:53:18.019Z,99834.53
2019-06-20T14:55:47.688Z,99834.70
2019-06-20T14:58:16.819Z,99839.51
2019-06-20T15:00:46.968Z,99839.31
2019-06-20T15:03:16.861Z,99830.39
2019-06-20T15:05:46.587Z,99837.12
2019-06-20T15:08:16.245Z,99832.63
2019-06-20T15:10:46.626Z,99836.03
2019-06-20T15:13:16.199Z,99833.87
2019-06-20T15:15:46.612Z,99833.36
2019-06-20T15:18:16.154Z,99833.62
2019-06-20T15:20:46.570Z,99831.24
2019-06-20T15:23:16.217Z,99844.97
2019-06-20T15:25:45.837Z,99840.71
2019-06-20T15:28:16.142Z,99834.32
2019-06-20T15:30:47.090Z,99833.84
2019-06-20T15:33:16.193Z,99830.38
2019-06-20T15:35:45.301Z,99832.72
2019-06-20T15:38:14.421Z,99827.05
2019-06-20T15:40:43.621Z,99823.52
2019-06-20T15:43:12.734Z,99825.98
2019-06-20T15:45:41.827Z,99833.31
2019-06-20T15:48:10.967Z,99831.72
2019-06-20T15:50:40.092Z,99826.46
2019-06-20T15:53:09.230Z,99820.18
2019-06-20T15:55:38.369Z,99824.98
2019-06-20T15:58:07.501Z,99826.34
2019-06-20T16:00:36.629Z,99816.16
2019-06-20T16:03:09.930Z,99819.81
2019-06-20T16:05:36.594Z,99820.22
2019-06-20T16:08:05.709Z,99827.95
2019-06-20T16:10:34.817Z,99827.00
2019-06-20T16:13:03.966Z,99833.78
2019-06-20T16:15:33.075Z,99839.29
2019-06-20T16:18:02.280Z,99839.41
2019-06-20T16:20:31.374Z,99845.34
2019-06-20T16:23:00.492Z,99845.34
2019-06-20T16:25:29.619Z,99846.56
2019-06-20T16:27:58.761Z,99854.08
2019-06-20T16:30:27.954Z,99845.11
2019-06-20T16:32:57.166Z,99844.86
2019-06-20T16:35:26.267Z,99845.96
2019-06-20T16:37:55.401Z,99848.17
2019-06-20T16:40:50.527Z,99845.59
2019-06-20T16:43:19.675Z,99857.39
2019-06-20T16:45:48.775Z,99851.20
2019-06-20T16:48:17.877Z,99855.11
2019-06-20T16:50:47.088Z,99864.11
2019-06-20T16:53:16.302Z,99863.22
2019-06-20T16:55:45.433Z,99862.71
2019-06-20T16:58:14.607Z,99869.83
2019-06-20T17:00:43.830Z,99873.03
2019-06-20T17:03:12.874Z,99876.17
2019-06-20T17:05:42.040Z,99867.64
2019-06-20T17:08:11.166Z,99873.10
2019-06-20T17:10:40.368Z,99886.14
2019-06-20T17:13:09.512Z,99883.40
2019-06-20T17:15:38.611Z,99890.12
2019-06-20T17:18:07.743Z,99902.14
2019-06-20T17:20:36.888Z,99903.33
2019-06-20T17:23:06.551Z,99899.83
2019-06-20T17:25:35.669Z,99909.50
2019-06-20T17:28:05.186Z,99906.91
2019-06-20T17:30:34.320Z,99910.91
2019-06-20T17:33:03.436Z,99904.46
2019-06-20T17:35:32.618Z,99918.38
2019-06-20T17:38:01.744Z,99922.97
2019-06-20T17:40:31.098Z,99929.53
2019-06-20T17:43:00.231Z,99926.61
2019-06-20T17:45:29.618Z,99924.41
2019-06-20T17:47:58.822Z,99916.66
2019-06-20T17:50:27.948Z,99925.69
2019-06-20T17:52:57.084Z,99769.12
2019-06-20T17:55:26.215Z,99923.99
2019-06-20T17:57:55.311Z,99922.88
2019-06-20T18:00:24.918Z,99926.76
2019-06-20T18:02:54.019Z,99930.25
2019-06-20T18:05:23.274Z,99937.30
2019-06-20T18:07:52.523Z,99936.48
2019-06-20T18:10:22.056Z,99935.45
2019-06-20T18:12:51.222Z,99937.68
2019-06-20T18:15:20.458Z,99938.31
2019-06-20T18:17:49.574Z,99944.69
2019-06-20T18:20:18.947Z,99938.34
2019-06-20T18:22:48.064Z,99939.73
2019-06-20T18:25:17.312Z,99939.13
2019-06-20T18:27:46.468Z,99936.73
2019-06-20T18:30:15.686Z,99937.05
2019-06-20T18:32:44.810Z,99938.21
2019-06-20T18:35:14.203Z,99945.24
2019-06-20T18:37:43.333Z,99942.45
2019-06-20T18:40:12.450Z,99949.48
2019-06-20T18:42:41.671Z,99952.78
2019-06-20T18:45:11.282Z,99956.34
2019-06-20T18:47:40.379Z,99955.98
2019-06-20T18:50:09.799Z,99960.20
2019-06-20T18:52:51.553Z,99961.72
2019-06-20T18:55:09.867Z,99970.94
2019-06-20T18:57:39.099Z,99974.01
2019-06-20T19:00:08.465Z,99982.45
2019-06-20T19:02:37.563Z,99982.28
2019-06-20T19:05:07.273Z,99989.19
2019-06-20T19:07:36.415Z,99991.29
2019-06-20T19:10:05.994Z,99995.13
2019-06-20T19:12:35.161Z,99995.30
2019-06-20T19:15:04.703Z,100001.55
2019-06-20T19:17:33.915Z,100005.20
2019-06-20T19:20:03.099Z,100016.45
2019-06-20T19:22:32.252Z,100013.58
2019-06-20T19:25:03.931Z,100024.44
2019-06-20T19:27:45.538Z,100024.52
2019-06-20T19:30:03.128Z,100031.04
2019-06-20T19:32:32.230Z,100036.30
2019-06-20T19:35:02.795Z,100044.84
2019-06-20T19:37:32.049Z,100052.39
2019-06-20T19:40:01.217Z,100056.30
2019-06-20T19:42:30.305Z,100055.91
2019-06-20T19:44:59.449Z,100067.79
2019-06-20T19:47:28.553Z,100063.92
2019-06-20T19:49:57.694Z,100067.01
2019-06-20T19:52:26.826Z,100071.69
2019-06-20T19:54:55.962Z,100075.50
2019-06-20T19:57:25.131Z,100074.97
2019-06-20T19:59:54.261Z,100078.81
2019-06-20T20:02:23.379Z,100091.08
2019-06-20T20:04:52.654Z,100093.94
2019-06-20T20:07:21.846Z,100097.74
2019-06-20T20:09:51.123Z,100100.77
2019-06-20T20:12:20.275Z,100102.30
2019-06-20T20:14:49.436Z,100096.22
2019-06-20T20:17:18.592Z,100103.50
2019-06-20T20:19:47.714Z,100097.42
2019-06-20T20:22:16.903Z,100099.88
2019-06-20T20:24:46.074Z,100105.41
2019-06-20T20:27:15.173Z,100109.72
2019-06-20T20:29:44.326Z,100109.64
2019-06-20T20:32:13.457Z,100111.70
2019-06-20T20:34:42.575Z,100119.05
2019-06-20T20:37:11.694Z,100122.69
2019-06-20T20:39:40.837Z,100123.80
2019-06-20T20:42:09.949Z,100131.86
2019-06-20T20:44:39.088Z,100136.44
2019-06-20T20:47:08.222Z,100133.52
2019-06-20T20:49:37.372Z,100142.99
2019-06-20T20:52:06.492Z,100144.41
2019-06-20T20:54:35.649Z,100141.81
2019-06-20T20:57:04.788Z,100148.52
2019-06-20T20:59:34.024Z,100145.91
2019-06-20T21:02:03.186Z,100150.09
2019-06-20T21:04:32.297Z,100157.29
2019-06-20T21:07:01.429Z,100150.65
2019-06-20T21:09:30.562Z,100152.10
2019-06-20T21:11:59.677Z,100150.44
2019-06-20T21:14:28.792Z,100108.66
2019-06-20T21:16:57.938Z,100149.72
2019-06-20T21:19:27.071Z,100153.98
2019-06-20T21:21:56.177Z,100157.77
2019-06-20T21:24:25.305Z,100160.23
2019-06-20T21:26:54.434Z,100162.67
2019-06-20T21:29:23.552Z,100167.00
2019-06-20T21:31:52.669Z,100170.31
2019-06-20T21:34:21.948Z,100168.25
2019-06-20T21:36:51.168Z,100164.95
2019-06-20T21:39:20.337Z,100169.59
2019-06-20T21:41:49.500Z,100174.23
2019-06-20T21:44:18.614Z,100176.52
2019-06-20T21:46:47.741Z,100173.19
2019-06-20T21:49:16.864Z,100176.41
2019-06-20T21:51:45.995Z,100177.36
2019-06-20T21:54:15.096Z,100178.30
2019-06-20T21:56:44.232Z,100186.86
2019-06-20T21:59:13.338Z,100189.17
2019-06-20T22:01:42.612Z,100189.72
2019-06-20T22:04:12.264Z,100193.09
2019-06-20T22:06:41.370Z,100196.72
2019-06-20T22:09:10.488Z,100191.56
2019-06-20T22:11:39.643Z,100202.04
2019-06-20T22:14:08.785Z,100198.27
2019-06-20T22:16:37.931Z,100200.21
2019-06-20T22:19:07.027Z,100199.95
2019-06-20T22:21:36.156Z,100203.58
2019-06-20T22:24:06.576Z,100201.90
2019-06-20T22:26:35.688Z,100201.10
2019-06-20T22:29:04.944Z,100203.55
2019-06-20T22:31:34.078Z,100201.88
2019-06-20T22:34:03.273Z,100202.48
2019-06-20T22:36:40.224Z,100205.45
2019-06-20T22:39:03.754Z,100206.05
2019-06-20T22:41:32.868Z,100202.41
2019-06-20T22:44:01.970Z,100062.64
2019-06-20T22:46:31.105Z,100205.48
2019-06-20T22:49:00.220Z,100201.60
2019-06-20T22:51:29.346Z,100205.22
2019-06-20T22:53:58.467Z,100200.50
2019-06-20T22:56:27.571Z,100206.86
2019-06-20T22:58:56.713Z,100214.09
2019-06-20T23:01:25.811Z,100213.05
2019-06-20T23:03:54.938Z,100225.31
2019-06-20T23:06:24.032Z,100227.06
2019-06-20T23:08:53.259Z,100238.04
2019-06-20T23:11:22.371Z,100233.03
2019-06-20T23:13:51.489Z,100236.43
2019-06-20T23:16:20.632Z,100242.84
2019-06-20T23:18:49.751Z,100246.12
2019-06-20T23:21:18.865Z,100248.98
2019-06-20T23:23:47.977Z,100248.33
2019-06-20T23:26:17.073Z,100249.85
2019-06-20T23:28:48.421Z,100246.08
2019-06-20T23:31:17.631Z,100242.65
2019-06-20T23:33:46.730Z,100242.40
2019-06-20T23:36:15.851Z,100248.40
2019-06-20T23:38:44.947Z,100250.97
2019-06-20T23:41:14.093Z,100255.28
2019-06-20T23:43:43.214Z,100259.41
2019-06-20T23:46:12.337Z,100259.53
2019-06-20T23:48:41.443Z,100262.73
2019-06-20T23:51:24.715Z,100261.63
2019-06-20T23:53:41.515Z,100266.77
2019-06-20T23:56:10.636Z,100261.59
2019-06-20T23:58:39.720Z,100266.64
